Time;durP1;ratioP1;P1;durP2;ratioP2;P2;SDS_P1;SDS_P2;PMS_P1;PMS_P2;Temp;Humidity;BMP_temperature;BMP_pressure;BME280_temperature;BME280_humidity;BME280_pressure;Samples;Min_cycle;Max_cycle;Signal;HPM_P1;HPM_P2
2022/11/14 00:02:30;;;;;;;14.93;8.13;;;;;;;8.21;96.02;101195.44;31971122;27;20063;-78
2022/11/14 00:17:32;;;;;;;16.83;7.30;;;;;;;8.10;96.01;101183.75;31847086;27;20483;-79
2022/11/14 00:32:34;;;;;;;19.03;6.83;;;;;;;7.96;96.73;101170.91;31871269;27;20107;-77
2022/11/14 00:47:36;;;;;;;17.70;7.67;;;;;;;7.87;96.67;101165.81;31870630;27;20502;-76
2022/11/14 01:02:38;;;;;;;15.10;6.83;;;;;;;7.83;96.32;101170.41;31889481;27;20051;-77
2022/11/14 01:17:41;;;;;;;13.43;6.47;;;;;;;7.74;96.49;101188.09;32003077;27;20043;-75
2022/11/14 01:32:43;;;;;;;16.93;7.93;;;;;;;7.69;96.13;101194.59;32000048;27;20057;-76
2022/11/14 01:47:45;;;;;;;12.97;6.13;;;;;;;7.65;96.26;101207.31;31983275;27;20078;-77
2022/11/14 02:02:47;;;;;;;11.63;5.57;;;;;;;7.56;95.40;101228.44;32012129;27;20384;-77
2022/11/14 02:17:49;;;;;;;12.70;5.93;;;;;;;7.42;95.27;101225.59;31961846;27;20075;-76
2022/11/14 02:32:51;;;;;;;14.33;5.63;;;;;;;7.26;95.46;101233.13;32000864;27;20095;-77
2022/11/14 02:48:13;;;;;;;11.13;5.43;;;;;;;7.21;94.73;101228.81;31989018;27;20392;-77
2022/11/14 03:03:15;;;;;;;11.40;6.23;;;;;;;7.24;94.86;101236.19;32008625;27;20055;-77
2022/11/14 03:18:17;;;;;;;10.90;5.80;;;;;;;7.10;94.65;101252.97;32014514;27;20465;-76
2022/11/14 03:33:19;;;;;;;13.33;5.90;;;;;;;6.96;94.78;101247.41;32020359;27;20047;-77
2022/11/14 03:48:21;;;;;;;9.37;4.77;;;;;;;6.81;95.03;101234.88;32001387;27;20645;-79
2022/11/14 04:03:24;;;;;;;20.17;6.37;;;;;;;6.66;94.94;101249.28;32013575;27;20046;-77
2022/11/14 04:18:26;;;;;;;13.93;6.23;;;;;;;6.51;94.70;101272.59;32009637;27;20076;-76
2022/11/14 04:33:29;;;;;;;13.10;5.90;;;;;;;6.33;95.48;101279.63;31994693;27;20046;-75
2022/11/14 04:48:31;;;;;;;11.57;5.30;;;;;;;6.30;94.97;101291.91;31986456;27;20050;-78
2022/11/14 05:03:33;;;;;;;8.63;4.97;;;;;;;6.32;94.50;101316.59;31881288;27;1450160;-76
2022/11/14 05:18:36;;;;;;;11.27;5.17;;;;;;;6.64;92.52;101327.13;31866763;27;20557;-77
2022/11/14 05:33:41;;;;;;;8.33;4.67;;;;;;;8.51;80.47;101327.88;31867185;27;20046;-78
2022/11/14 05:48:43;;;;;;;9.63;5.00;;;;;;;10.51;68.84;101333.78;31863360;27;20055;-77
2022/11/14 06:03:46;;;;;;;6.40;4.23;;;;;;;12.28;60.16;101334.41;31893886;27;20055;-78
2022/11/14 06:18:52;;;;;;;9.53;4.73;;;;;;;13.13;56.58;101344.53;32002451;27;20059;-78
2022/11/14 06:33:54;;;;;;;;;;;;;;;14.25;51.82;101345.47;31975106;27;20043;-78
2022/11/14 06:48:55;;;;;;;7.03;3.83;;;;;;;15.06;49.43;101354.31;31973742;27;19919;-79
2022/11/14 07:03:59;;;;;;;5.67;3.53;;;;;;;15.83;46.99;101373.13;31997697;27;20541;-79
2022/11/14 07:19:04;;;;;;;7.07;3.20;;;;;;;16.44;43.52;101386.28;31988434;27;20051;-78
2022/11/14 07:34:07;;;;;;;4.97;3.00;;;;;;;16.74;41.97;101385.19;31967667;27;20110;-79
2022/11/14 07:49:09;;;;;;;5.57;3.03;;;;;;;17.16;40.46;101383.34;32003862;27;20419;-78
2022/11/14 08:04:11;;;;;;;29.60;14.50;;;;;;;17.73;38.89;101387.25;32018424;27;20051;-78
2022/11/14 08:19:15;;;;;;;4.20;1.70;;;;;;;17.96;36.24;101399.94;32001928;27;20510;-77
2022/11/14 08:34:17;;;;;;;2.77;1.63;;;;;;;18.36;35.30;101390.06;31993929;27;20131;-77
2022/11/14 08:49:19;;;;;;;3.00;1.90;;;;;;;18.23;35.25;101370.06;32010968;27;20062;-78
2022/11/14 09:04:21;;;;;;;3.65;1.55;;;;;;;18.47;34.88;101362.22;32005497;27;20050;-77
2022/11/14 09:19:24;;;;;;;3.10;1.50;;;;;;;18.73;34.56;101347.25;32006768;27;20054;-77
2022/11/14 09:34:26;;;;;;;5.47;1.30;;;;;;;18.80;34.74;101353.72;32003923;27;20106;-78
2022/11/14 09:49:43;;;;;;;3.72;1.33;;;;;;;18.55;34.58;101330.53;32004138;27;20103;-78
2022/11/14 10:05:04;;;;;;;5.40;1.73;;;;;;;18.99;34.12;101316.88;31988950;27;20373;-78
2022/11/14 10:20:27;;;;;;;4.90;2.33;;;;;;;19.26;34.13;101303.34;32001019;27;20058;-79
2022/11/14 10:35:57;;;;;;;4.55;1.17;;;;;;;19.25;33.60;101310.06;31964641;27;20092;-77
2022/11/14 10:51:12;;;;;;;4.13;1.40;;;;;;;18.67;35.88;101302.25;31992559;27;20050;-79
2022/11/14 11:06:27;;;;;;;4.90;2.03;;;;;;;18.38;36.63;101293.41;31996680;27;20112;-77
2022/11/14 11:21:46;;;;;;;4.47;1.17;;;;;;;18.29;36.32;101280.34;31995603;27;20046;-78
2022/11/14 11:37:15;;;;;;;2.97;1.25;;;;;;;18.72;34.15;101279.69;32000737;27;20120;-76
2022/11/14 11:52:31;;;;;;;3.22;1.10;;;;;;;19.79;32.40;101273.03;31998268;27;20479;-77
2022/11/14 12:08:03;;;;;;;1.85;1.30;;;;;;;20.05;31.41;101271.59;31998190;27;20051;-77
2022/11/14 12:23:13;;;;;;;5.72;1.50;;;;;;;18.14;34.26;101268.28;32020906;27;20480;-78
2022/11/14 12:38:19;;;;;;;6.53;2.07;;;;;;;14.49;41.26;101262.38;32005282;27;20050;-77
2022/11/14 12:53:42;;;;;;;10.23;4.33;;;;;;;13.04;46.78;101262.47;31994376;27;20492;-76
2022/11/14 13:08:50;;;;;;;15.10;5.43;;;;;;;12.44;48.78;101266.56;31997598;27;20072;-77
2022/11/14 13:23:54;;;;;;;13.93;5.97;;;;;;;12.16;50.14;101251.25;31999366;27;20169;-77
2022/11/14 13:39:31;;;;;;;10.03;3.93;;;;;;;11.61;52.23;101248.47;31985397;27;20051;-80
2022/11/14 13:54:33;;;;;;;10.30;4.90;;;;;;;11.26;53.26;101250.22;31994702;27;20043;-77
2022/11/14 14:10:04;;;;;;;10.80;5.30;;;;;;;10.81;55.28;101248.44;31995731;27;20050;-77
2022/11/14 14:25:09;;;;;;;9.83;5.10;;;;;;;11.93;52.29;101249.09;32007201;27;20095;-76
2022/11/14 14:40:25;;;;;;;8.07;4.03;;;;;;;10.09;58.21;101263.97;31992072;27;20437;-79
2022/11/14 14:55:31;;;;;;;6.80;3.37;;;;;;;9.84;59.61;101266.63;32010697;27;20046;-77
2022/11/14 15:10:34;;;;;;;6.27;3.30;;;;;;;9.51;61.16;101265.00;32015207;27;20497;-76
2022/11/14 15:25:36;;;;;;;15.30;4.87;;;;;;;9.26;62.17;101280.38;32025803;27;20088;-76
2022/11/14 15:40:39;;;;;;;12.40;5.03;;;;;;;9.14;63.08;101278.78;32004582;27;20051;-78
2022/11/14 15:55:41;;;;;;;12.03;5.47;;;;;;;8.92;63.36;101296.09;31986146;27;20047;-77
2022/11/14 16:10:44;;;;;;;16.97;5.40;;;;;;;8.69;64.54;101295.53;32014046;27;20089;-76
2022/11/14 16:25:47;;;;;;;11.43;4.27;;;;;;;8.66;64.86;101293.59;32003117;27;20047;-78
2022/11/14 16:40:49;;;;;;;10.03;5.07;;;;;;;8.61;65.19;101302.06;32026021;27;20177;-78
2022/11/14 16:55:54;;;;;;;10.63;4.73;;;;;;;8.37;65.82;101304.19;32010295;27;20043;-77
2022/11/14 17:10:56;;;;;;;8.10;4.33;;;;;;;8.28;66.22;101298.28;31980441;27;20066;-77
2022/11/14 17:26:06;;;;;;;24.83;11.17;;;;;;;8.11;66.89;101294.25;31992303;27;20046;-77
2022/11/14 17:41:08;;;;;;;10.57;4.93;;;;;;;7.68;68.69;101301.16;32001470;27;20163;-76
2022/11/14 17:56:13;;;;;;;10.33;5.33;;;;;;;7.55;69.71;101302.56;31991815;27;20138;-77
2022/11/14 18:11:19;;;;;;;13.20;5.80;;;;;;;7.58;69.48;101314.53;32000568;27;20058;-78
2022/11/14 18:26:25;;;;;;;;;;;;;;;7.60;69.13;101321.13;31994643;27;20046;-77
2022/11/14 18:41:27;;;;;;;13.23;5.73;;;;;;;7.31;70.30;101327.34;31986170;27;20356;-78
2022/11/14 18:56:29;;;;;;;12.47;6.13;;;;;;;7.11;71.01;101324.75;31984136;27;20096;-78
2022/11/14 19:26:52;;;;;;;20.40;10.90;;;;;;;6.85;71.90;101338.25;31997826;27;20051;-78
2022/11/14 19:41:56;;;;;;;21.03;11.17;;;;;;;6.80;72.44;101336.66;31999633;27;20046;-78
2022/11/14 19:56:57;;;;;;;17.70;9.00;;;;;;;6.58;73.04;101333.97;32007084;27;20051;-78
2022/11/14 20:12:05;;;;;;;14.87;7.40;;;;;;;6.47;73.93;101328.41;32003529;27;20500;-77
2022/11/14 20:27:10;;;;;;;19.00;9.10;;;;;;;6.23;74.96;101343.03;32000652;27;20053;-77
2022/11/14 20:42:12;;;;;;;16.77;8.57;;;;;;;6.07;75.98;101328.88;31993675;27;20043;-78
2022/11/14 20:57:15;;;;;;;20.40;10.17;;;;;;;5.96;76.65;101325.19;31996123;27;20038;-76
2022/11/14 21:12:17;;;;;;;23.37;10.27;;;;;;;5.89;76.56;101335.84;31869929;27;20496;-78
2022/11/14 21:27:19;;;;;;;21.03;11.10;;;;;;;5.68;76.81;101328.84;31890306;27;20131;-78
2022/11/14 21:42:21;;;;;;;20.03;9.57;;;;;;;5.61;77.68;101331.44;31887227;27;20100;-78
2022/11/14 21:57:23;;;;;;;24.37;9.90;;;;;;;5.59;77.81;101339.09;31899245;27;20054;-78
2022/11/14 22:12:25;;;;;;;20.77;9.20;;;;;;;5.55;77.47;101314.00;31972986;27;20051;-79
2022/11/14 22:27:27;;;;;;;24.50;9.87;;;;;;;5.40;79.07;101306.75;32005797;27;20060;-78
2022/11/14 22:42:29;;;;;;;24.97;11.10;;;;;;;5.29;79.23;101303.06;32025163;27;20050;-77
2022/11/14 22:57:30;;;;;;;22.97;10.73;;;;;;;5.40;79.89;101298.69;32041951;27;20043;-77
2022/11/14 23:12:32;;;;;;;25.53;10.43;;;;;;;5.43;79.29;101287.22;32022428;27;20058;-76
2022/11/14 23:27:35;;;;;;;19.10;9.87;;;;;;;5.49;79.51;101272.31;32024620;27;20388;-76
2022/11/14 23:42:36;;;;;;;22.00;10.20;;;;;;;5.44;79.73;101277.97;32009062;27;20423;-76
2022/11/14 23:57:38;;;;;;;22.40;10.07;;;;;;;5.28;80.29;101269.97;32066190;27;20075;-76
